sensor_id;sensor_type;location;lat;lon;timestamp;pressure;altitude;pressure_sealevel;temperature;humidity
30935;BME280;51033;42.648;23.292;2023-05-21T00:02:08;93752.28;;;15.29;59.91
30935;BME280;51033;42.648;23.292;2023-05-21T00:04:38;93749.25;;;15.30;60.32
30935;BME280;51033;42.648;23.292;2023-05-21T00:07:05;93737.28;;;15.12;60.00
30935;BME280;51033;42.648;23.292;2023-05-21T00:09:30;93736.50;;;15.12;59.98
30935;BME280;51033;42.648;23.292;2023-05-21T00:11:56;93742.16;;;15.22;59.11
30935;BME280;51033;42.648;23.292;2023-05-21T00:14:21;93730.78;;;15.25;58.88
30935;BME280;51033;42.648;23.292;2023-05-21T00:16:47;93737.34;;;15.43;58.52
30935;BME280;51033;42.648;23.292;2023-05-21T00:19:12;93721.72;;;15.02;59.00
30935;BME280;51033;42.648;23.292;2023-05-21T00:21:37;93722.78;;;15.13;58.57
30935;BME280;51033;42.648;23.292;2023-05-21T00:24:04;93736.44;;;15.08;59.29
30935;BME280;51033;42.648;23.292;2023-05-21T00:26:29;93736.84;;;14.94;59.55
30935;BME280;51033;42.648;23.292;2023-05-21T00:28:55;93730.41;;;14.83;60.17
30935;BME280;51033;42.648;23.292;2023-05-21T00:31:21;93737.22;;;14.81;60.85
30935;BME280;51033;42.648;23.292;2023-05-21T00:33:46;93716.88;;;14.64;60.85
30935;BME280;51033;42.648;23.292;2023-05-21T00:36:11;93736.09;;;14.82;60.28
30935;BME280;51033;42.648;23.292;2023-05-21T00:38:39;93730.97;;;14.77;60.98
30935;BME280;51033;42.648;23.292;2023-05-21T00:41:08;93713.88;;;14.66;60.98
30935;BME280;51033;42.648;23.292;2023-05-21T00:43:33;93714.75;;;14.70;60.87
30935;BME280;51033;42.648;23.292;2023-05-21T00:45:58;93706.50;;;14.63;60.48
30935;BME280;51033;42.648;23.292;2023-05-21T00:48:24;93714.88;;;14.61;60.81
30935;BME280;51033;42.648;23.292;2023-05-21T00:50:50;93724.56;;;14.66;61.10
30935;BME280;51033;42.648;23.292;2023-05-21T00:53:17;93688.81;;;14.46;61.16
30935;BME280;51033;42.648;23.292;2023-05-21T00:55:44;93712.88;;;14.58;60.96
30935;BME280;51033;42.648;23.292;2023-05-21T00:58:10;93702.88;;;14.55;61.23
30935;BME280;51033;42.648;23.292;2023-05-21T01:00:36;93703.03;;;14.62;60.80
30935;BME280;51033;42.648;23.292;2023-05-21T01:03:07;93716.88;;;14.64;61.09
30935;BME280;51033;42.648;23.292;2023-05-21T01:05:33;93694.34;;;14.53;60.80
30935;BME280;51033;42.648;23.292;2023-05-21T01:07:59;93718.34;;;14.62;61.24
30935;BME280;51033;42.648;23.292;2023-05-21T01:10:25;93707.88;;;14.56;61.39
30935;BME280;51033;42.648;23.292;2023-05-21T01:12:52;93715.66;;;14.62;61.22
30935;BME280;51033;42.648;23.292;2023-05-21T01:15:19;93715.31;;;14.63;61.47
30935;BME280;51033;42.648;23.292;2023-05-21T01:17:45;93706.09;;;14.60;61.80
30935;BME280;51033;42.648;23.292;2023-05-21T01:20:10;93708.50;;;14.66;61.40
30935;BME280;51033;42.648;23.292;2023-05-21T01:22:55;93708.50;;;14.66;61.68
30935;BME280;51033;42.648;23.292;2023-05-21T01:25:21;93697.38;;;14.51;61.37
30935;BME280;51033;42.648;23.292;2023-05-21T01:27:48;93709.00;;;14.55;62.08
30935;BME280;51033;42.648;23.292;2023-05-21T01:30:14;93690.91;;;14.52;61.73
30935;BME280;51033;42.648;23.292;2023-05-21T01:37:36;93703.03;;;14.62;61.59
30935;BME280;51033;42.648;23.292;2023-05-21T01:40:17;93698.47;;;14.63;61.62
30935;BME280;51033;42.648;23.292;2023-05-21T01:42:46;93690.91;;;14.52;61.76
30935;BME280;51033;42.648;23.292;2023-05-21T01:45:13;93689.59;;;14.46;62.16
30935;BME280;51033;42.648;23.292;2023-05-21T01:47:40;93696.25;;;14.52;61.99
30935;BME280;51033;42.648;23.292;2023-05-21T01:50:08;93695.38;;;14.48;61.93
30935;BME280;51033;42.648;23.292;2023-05-21T01:52:34;93692.31;;;14.34;62.87
30935;BME280;51033;42.648;23.292;2023-05-21T01:55:00;93688.69;;;14.42;62.31
30935;BME280;51033;42.648;23.292;2023-05-21T01:57:25;93689.84;;;14.41;62.49
30935;BME280;51033;42.648;23.292;2023-05-21T01:59:51;93688.69;;;14.42;62.43
30935;BME280;51033;42.648;23.292;2023-05-21T02:02:20;93692.84;;;14.40;62.12
30935;BME280;51033;42.648;23.292;2023-05-21T02:04:46;93688.50;;;14.35;62.33
30935;BME280;51033;42.648;23.292;2023-05-21T02:07:11;93696.94;;;14.49;61.72
30935;BME280;51033;42.648;23.292;2023-05-21T02:09:40;93677.13;;;14.38;61.84
30935;BME280;51033;42.648;23.292;2023-05-21T02:12:06;93668.22;;;14.34;61.73
30935;BME280;51033;42.648;23.292;2023-05-21T02:14:32;93694.75;;;14.39;61.62
30935;BME280;51033;42.648;23.292;2023-05-21T02:16:59;93690.72;;;14.33;61.82
30935;BME280;51033;42.648;23.292;2023-05-21T02:19:25;93689.88;;;14.29;61.71
30935;BME280;51033;42.648;23.292;2023-05-21T02:21:51;93682.75;;;14.21;61.94
30935;BME280;51033;42.648;23.292;2023-05-21T02:24:16;93686.06;;;14.30;61.14
30935;BME280;51033;42.648;23.292;2023-05-21T02:26:41;93685.84;;;14.23;61.55
30935;BME280;51033;42.648;23.292;2023-05-21T02:29:07;93673.19;;;14.20;61.17
30935;BME280;51033;42.648;23.292;2023-05-21T02:31:33;93687.31;;;14.21;61.14
30935;BME280;51033;42.648;23.292;2023-05-21T02:33:58;93675.44;;;14.06;61.54
30935;BME280;51033;42.648;23.292;2023-05-21T02:36:23;93680.88;;;14.09;61.80
30935;BME280;51033;42.648;23.292;2023-05-21T02:38:49;93670.41;;;14.04;61.54
30935;BME280;51033;42.648;23.292;2023-05-21T02:41:15;93671.44;;;14.00;61.50
30935;BME280;51033;42.648;23.292;2023-05-21T02:43:40;93660.41;;;13.89;61.66
30935;BME280;51033;42.648;23.292;2023-05-21T02:46:06;93678.81;;;13.91;61.61
30935;BME280;51033;42.648;23.292;2023-05-21T02:48:31;93662.56;;;13.84;62.05
30935;BME280;51033;42.648;23.292;2023-05-21T02:50:57;93673.91;;;13.93;61.81
30935;BME280;51033;42.648;23.292;2023-05-21T02:53:23;93672.91;;;13.85;62.15
30935;BME280;51033;42.648;23.292;2023-05-21T02:55:48;93673.25;;;13.84;62.57
30935;BME280;51033;42.648;23.292;2023-05-21T02:58:14;93658.56;;;13.78;62.49
30935;BME280;51033;42.648;23.292;2023-05-21T03:00:39;93669.03;;;13.83;62.80
30935;BME280;51033;42.648;23.292;2023-05-21T03:03:05;93667.91;;;13.84;62.47
30935;BME280;51033;42.648;23.292;2023-05-21T03:05:31;93650.31;;;13.70;62.54
30935;BME280;51033;42.648;23.292;2023-05-21T03:07:56;93665.25;;;13.71;62.96
30935;BME280;51033;42.648;23.292;2023-05-21T03:10:21;93655.53;;;13.79;63.40
30935;BME280;51033;42.648;23.292;2023-05-21T03:12:47;93668.16;;;13.79;62.99
30935;BME280;51033;42.648;23.292;2023-05-21T03:15:12;93660.00;;;13.75;63.81
30935;BME280;51033;42.648;23.292;2023-05-21T03:17:41;93674.59;;;13.78;63.45
30935;BME280;51033;42.648;23.292;2023-05-21T03:20:08;93663.78;;;13.74;63.17
30935;BME280;51033;42.648;23.292;2023-05-21T03:22:41;93672.03;;;13.81;63.04
30935;BME280;51033;42.648;23.292;2023-05-21T03:25:06;93679.03;;;13.86;63.29
30935;BME280;51033;42.648;23.292;2023-05-21T03:27:31;93678.03;;;13.90;63.29
30935;BME280;51033;42.648;23.292;2023-05-21T03:29:57;93678.91;;;13.94;63.82
30935;BME280;51033;42.648;23.292;2023-05-21T03:32:23;93682.72;;;13.93;64.51
30935;BME280;51033;42.648;23.292;2023-05-21T03:34:48;93683.28;;;13.87;64.11
30935;BME280;51033;42.648;23.292;2023-05-21T03:37:14;93682.81;;;13.97;64.49
30935;BME280;51033;42.648;23.292;2023-05-21T03:39:39;93691.72;;;14.01;64.47
30935;BME280;51033;42.648;23.292;2023-05-21T03:42:04;93665.91;;;13.93;64.85
30935;BME280;51033;42.648;23.292;2023-05-21T03:44:30;93692.25;;;14.06;65.17
30935;BME280;51033;42.648;23.292;2023-05-21T03:46:56;93684.66;;;14.08;65.19
30935;BME280;51033;42.648;23.292;2023-05-21T03:49:22;93676.78;;;14.00;64.92
30935;BME280;51033;42.648;23.292;2023-05-21T03:51:47;93685.66;;;14.16;65.21
30935;BME280;51033;42.648;23.292;2023-05-21T03:54:12;93685.66;;;14.16;65.42
30935;BME280;51033;42.648;23.292;2023-05-21T03:56:38;93690.34;;;14.19;65.73
30935;BME280;51033;42.648;23.292;2023-05-21T03:59:03;93670.50;;;14.20;65.79
30935;BME280;51033;42.648;23.292;2023-05-21T04:01:29;93694.81;;;14.15;65.96
30935;BME280;51033;42.648;23.292;2023-05-21T04:03:54;93654.41;;;13.92;66.47
30935;BME280;51033;42.648;23.292;2023-05-21T04:06:20;93688.28;;;14.28;65.96
30935;BME280;51033;42.648;23.292;2023-05-21T04:08:45;93686.88;;;14.18;66.18
30935;BME280;51033;42.648;23.292;2023-05-21T04:11:11;93683.81;;;13.19;70.12
30935;BME280;51033;42.648;23.292;2023-05-21T04:13:37;93686.94;;;13.70;68.75
30935;BME280;51033;42.648;23.292;2023-05-21T04:16:02;93651.16;;;13.99;67.18
30935;BME280;51033;42.648;23.292;2023-05-21T04:18:28;93677.50;;;14.25;66.49
30935;BME280;51033;42.648;23.292;2023-05-21T04:20:53;93693.94;;;13.38;69.62
30935;BME280;51033;42.648;23.292;2023-05-21T04:23:18;93673.56;;;13.46;70.05
30935;BME280;51033;42.648;23.292;2023-05-21T04:25:44;93659.44;;;13.82;68.46
30935;BME280;51033;42.648;23.292;2023-05-21T04:28:09;93677.19;;;14.14;67.95
30935;BME280;51033;42.648;23.292;2023-05-21T04:30:35;93673.53;;;14.06;67.52
30935;BME280;51033;42.648;23.292;2023-05-21T04:33:01;93700.16;;;13.30;70.30
30935;BME280;51033;42.648;23.292;2023-05-21T04:35:27;93686.22;;;12.67;72.56
30935;BME280;51033;42.648;23.292;2023-05-21T04:37:52;93685.03;;;13.34;70.62
30935;BME280;51033;42.648;23.292;2023-05-21T04:40:19;93680.28;;;13.76;68.59
30935;BME280;51033;42.648;23.292;2023-05-21T04:42:51;93681.72;;;13.49;67.28
30935;BME280;51033;42.648;23.292;2023-05-21T04:45:16;93692.66;;;13.11;70.92
30935;BME280;51033;42.648;23.292;2023-05-21T04:47:42;93685.03;;;13.46;69.69
30935;BME280;51033;42.648;23.292;2023-05-21T04:50:08;93678.06;;;13.78;68.24
30935;BME280;51033;42.648;23.292;2023-05-21T04:52:35;93676.88;;;13.30;66.54
30935;BME280;51033;42.648;23.292;2023-05-21T04:55:01;93678.66;;;13.14;69.43
30935;BME280;51033;42.648;23.292;2023-05-21T04:57:27;93672.78;;;13.33;66.71
30935;BME280;51033;42.648;23.292;2023-05-21T04:59:54;93683.47;;;13.57;65.53
30935;BME280;51033;42.648;23.292;2023-05-21T05:02:20;93678.59;;;13.47;68.38
30935;BME280;51033;42.648;23.292;2023-05-21T05:04:45;93680.66;;;13.05;69.42
30935;BME280;51033;42.648;23.292;2023-05-21T05:07:11;93683.22;;;12.48;72.41
30935;BME280;51033;42.648;23.292;2023-05-21T05:09:36;93668.22;;;13.21;70.78
30935;BME280;51033;42.648;23.292;2023-05-21T05:12:03;93679.94;;;12.84;64.82
30935;BME280;51033;42.648;23.292;2023-05-21T05:14:29;93662.03;;;12.84;68.30
30935;BME280;51033;42.648;23.292;2023-05-21T05:16:54;93676.25;;;13.58;65.01
30935;BME280;51033;42.648;23.292;2023-05-21T05:19:23;93673.91;;;13.20;63.12
30935;BME280;51033;42.648;23.292;2023-05-21T05:21:49;93682.03;;;12.78;62.59
30935;BME280;51033;42.648;23.292;2023-05-21T05:24:14;93675.53;;;12.67;64.89
30935;BME280;51033;42.648;23.292;2023-05-21T05:26:40;93683.66;;;13.04;68.72
30935;BME280;51033;42.648;23.292;2023-05-21T05:29:05;93676.63;;;12.99;64.16
30935;BME280;51033;42.648;23.292;2023-05-21T05:31:31;93680.03;;;13.32;63.45
30935;BME280;51033;42.648;23.292;2023-05-21T05:33:56;93683.13;;;13.10;61.85
30935;BME280;51033;42.648;23.292;2023-05-21T05:36:22;93682.78;;;13.12;64.74
30935;BME280;51033;42.648;23.292;2023-05-21T05:38:48;93689.47;;;12.73;69.81
30935;BME280;51033;42.648;23.292;2023-05-21T05:41:13;93682.09;;;13.03;70.04
30935;BME280;51033;42.648;23.292;2023-05-21T05:43:39;93672.44;;;13.10;67.53
30935;BME280;51033;42.648;23.292;2023-05-21T05:46:04;93675.00;;;13.19;66.21
30935;BME280;51033;42.648;23.292;2023-05-21T05:48:30;93658.09;;;13.15;63.73
30935;BME280;51033;42.648;23.292;2023-05-21T05:50:55;93664.66;;;13.17;60.92
30935;BME280;51033;42.648;23.292;2023-05-21T05:53:21;93677.47;;;13.48;61.42
30935;BME280;51033;42.648;23.292;2023-05-21T05:55:47;93673.03;;;13.64;59.68
30935;BME280;51033;42.648;23.292;2023-05-21T05:58:12;93656.31;;;13.55;57.90
30935;BME280;51033;42.648;23.292;2023-05-21T06:00:38;93666.09;;;13.51;58.54
30935;BME280;51033;42.648;23.292;2023-05-21T06:03:03;93681.81;;;13.53;59.80
30935;BME280;51033;42.648;23.292;2023-05-21T06:05:29;93677.81;;;13.83;60.19
30935;BME280;51033;42.648;23.292;2023-05-21T06:07:55;93672.53;;;13.99;58.51
30935;BME280;51033;42.648;23.292;2023-05-21T06:10:20;93670.59;;;13.71;59.53
30935;BME280;51033;42.648;23.292;2023-05-21T06:12:46;93665.44;;;14.03;59.06
30935;BME280;51033;42.648;23.292;2023-05-21T06:15:11;93671.88;;;13.90;57.43
30935;BME280;51033;42.648;23.292;2023-05-21T06:17:40;93664.66;;;14.02;57.04
30935;BME280;51033;42.648;23.292;2023-05-21T06:20:07;93609.91;;;14.12;57.65
30935;BME280;51033;42.648;23.292;2023-05-21T06:22:33;93657.78;;;14.57;56.84
30935;BME280;51033;42.648;23.292;2023-05-21T06:24:58;93649.13;;;14.91;57.42
30935;BME280;51033;42.648;23.292;2023-05-21T06:27:24;93661.56;;;14.84;54.77
30935;BME280;51033;42.648;23.292;2023-05-21T06:29:49;93651.13;;;14.79;54.05
30935;BME280;51033;42.648;23.292;2023-05-21T06:32:15;93657.38;;;15.14;54.77
30935;BME280;51033;42.648;23.292;2023-05-21T06:34:40;93660.06;;;15.14;53.43
30935;BME280;51033;42.648;23.292;2023-05-21T06:37:06;93648.06;;;15.24;53.76
30935;BME280;51033;42.648;23.292;2023-05-21T06:39:31;93645.38;;;15.24;52.74
30935;BME280;51033;42.648;23.292;2023-05-21T06:41:56;93649.53;;;15.53;53.15
30935;BME280;51033;42.648;23.292;2023-05-21T06:44:22;93648.69;;;15.49;52.50
30935;BME280;51033;42.648;23.292;2023-05-21T06:46:47;93639.94;;;15.04;54.21
30935;BME280;51033;42.648;23.292;2023-05-21T06:49:12;93635.09;;;15.10;52.82
30935;BME280;51033;42.648;23.292;2023-05-21T06:51:39;93651.06;;;15.22;53.10
30935;BME280;51033;42.648;23.292;2023-05-21T06:54:04;93657.13;;;15.51;52.56
30935;BME280;51033;42.648;23.292;2023-05-21T06:56:30;93640.28;;;15.50;52.78
30935;BME280;51033;42.648;23.292;2023-05-21T06:58:55;93647.09;;;15.16;52.97
30935;BME280;51033;42.648;23.292;2023-05-21T07:01:22;93652.09;;;15.18;53.78
30935;BME280;51033;42.648;23.292;2023-05-21T07:03:48;93642.06;;;15.30;55.07
30935;BME280;51033;42.648;23.292;2023-05-21T07:06:13;93639.09;;;15.48;54.17
30935;BME280;51033;42.648;23.292;2023-05-21T07:08:38;93639.63;;;15.88;52.31
30935;BME280;51033;42.648;23.292;2023-05-21T07:11:04;93654.19;;;15.40;52.20
30935;BME280;51033;42.648;23.292;2023-05-21T07:13:30;93632.91;;;15.31;51.57
30935;BME280;51033;42.648;23.292;2023-05-21T07:15:55;93635.44;;;15.56;50.31
30935;BME280;51033;42.648;23.292;2023-05-21T07:18:21;93642.16;;;15.65;51.00
30935;BME280;51033;42.648;23.292;2023-05-21T07:20:46;93655.16;;;15.48;50.69
30935;BME280;51033;42.648;23.292;2023-05-21T07:23:17;93607.16;;;15.42;50.30
30935;BME280;51033;42.648;23.292;2023-05-21T07:25:42;93640.69;;;15.68;50.39
30935;BME280;51033;42.648;23.292;2023-05-21T07:28:08;93648.03;;;15.71;50.97
30935;BME280;51033;42.648;23.292;2023-05-21T07:30:33;93627.94;;;15.80;49.91
30935;BME280;51033;42.648;23.292;2023-05-21T07:32:58;93642.34;;;15.57;49.73
30935;BME280;51033;42.648;23.292;2023-05-21T07:35:24;93645.94;;;16.15;50.99
30935;BME280;51033;42.648;23.292;2023-05-21T07:37:49;93637.34;;;15.90;50.29
30935;BME280;51033;42.648;23.292;2023-05-21T07:40:15;93635.59;;;15.78;51.87
30935;BME280;51033;42.648;23.292;2023-05-21T07:42:41;93637.25;;;16.21;51.40
30935;BME280;51033;42.648;23.292;2023-05-21T07:45:06;93643.56;;;15.94;50.65
30935;BME280;51033;42.648;23.292;2023-05-21T07:47:32;93652.91;;;16.00;50.97
30935;BME280;51033;42.648;23.292;2023-05-21T07:49:57;93631.41;;;15.81;49.92
30935;BME280;51033;42.648;23.292;2023-05-21T07:52:23;93644.84;;;16.00;50.06
30935;BME280;51033;42.648;23.292;2023-05-21T07:54:49;93641.38;;;16.35;50.64
30935;BME280;51033;42.648;23.292;2023-05-21T07:57:14;93649.09;;;16.01;48.36
30935;BME280;51033;42.648;23.292;2023-05-21T07:59:40;93641.81;;;15.82;47.79
30935;BME280;51033;42.648;23.292;2023-05-21T08:02:06;93639.16;;;15.67;48.44
30935;BME280;51033;42.648;23.292;2023-05-21T08:04:31;93648.47;;;15.41;48.35
30935;BME280;51033;42.648;23.292;2023-05-21T08:06:57;93633.47;;;15.53;49.64
30935;BME280;51033;42.648;23.292;2023-05-21T08:09:22;93640.69;;;15.68;50.43
30935;BME280;51033;42.648;23.292;2023-05-21T08:12:10;93643.25;;;15.80;49.22
30935;BME280;51033;42.648;23.292;2023-05-21T08:14:38;93642.81;;;15.94;49.33
30935;BME280;51033;42.648;23.292;2023-05-21T08:17:13;93631.56;;;16.23;47.74
30935;BME280;51033;42.648;23.292;2023-05-21T08:19:39;93638.16;;;16.45;46.78
30935;BME280;51033;42.648;23.292;2023-05-21T08:22:11;93645.34;;;16.41;45.06
30935;BME280;51033;42.648;23.292;2023-05-21T08:24:37;93640.28;;;16.01;45.39
30935;BME280;51033;42.648;23.292;2023-05-21T08:27:13;93641.94;;;15.89;44.72
30935;BME280;51033;42.648;23.292;2023-05-21T08:29:41;93637.22;;;15.83;45.04
30935;BME280;51033;42.648;23.292;2023-05-21T08:32:07;93647.41;;;15.93;44.02
30935;BME280;51033;42.648;23.292;2023-05-21T08:34:34;93616.44;;;15.80;43.81
30935;BME280;51033;42.648;23.292;2023-05-21T08:36:59;93659.81;;;16.01;43.70
30935;BME280;51033;42.648;23.292;2023-05-21T08:39:26;93634.91;;;15.66;43.10
30935;BME280;51033;42.648;23.292;2023-05-21T08:41:56;93658.50;;;15.60;43.99
30935;BME280;51033;42.648;23.292;2023-05-21T08:44:24;93651.97;;;15.58;44.38
30935;BME280;51033;42.648;23.292;2023-05-21T08:46:50;93644.88;;;15.50;43.89
30935;BME280;51033;42.648;23.292;2023-05-21T08:49:21;93601.22;;;15.18;43.79
30935;BME280;51033;42.648;23.292;2023-05-21T08:51:52;93616.66;;;15.56;43.69
30935;BME280;51033;42.648;23.292;2023-05-21T08:54:26;93633.56;;;15.91;44.21
30935;BME280;51033;42.648;23.292;2023-05-21T08:57:04;93643.03;;;16.04;44.03
30935;BME280;51033;42.648;23.292;2023-05-21T08:59:30;93640.06;;;16.09;44.47
30935;BME280;51033;42.648;23.292;2023-05-21T09:02:03;93641.34;;;16.15;44.04
30935;BME280;51033;42.648;23.292;2023-05-21T09:04:46;93637.81;;;16.11;44.82
30935;BME280;51033;42.648;23.292;2023-05-21T09:07:14;93637.03;;;16.11;46.28
30935;BME280;51033;42.648;23.292;2023-05-21T09:09:47;93644.25;;;16.07;44.87
30935;BME280;51033;42.648;23.292;2023-05-21T09:12:13;93626.50;;;15.83;45.65
30935;BME280;51033;42.648;23.292;2023-05-21T09:14:39;93632.50;;;15.96;46.73
30935;BME280;51033;42.648;23.292;2023-05-21T09:17:06;93645.91;;;16.30;47.08
30935;BME280;51033;42.648;23.292;2023-05-21T09:19:32;93627.06;;;16.46;47.03
30935;BME280;51033;42.648;23.292;2023-05-21T09:22:05;93635.59;;;16.52;46.28
30935;BME280;51033;42.648;23.292;2023-05-21T09:24:30;93630.56;;;16.69;44.37
30935;BME280;51033;42.648;23.292;2023-05-21T09:26:56;93639.81;;;16.91;44.87
30935;BME280;51033;42.648;23.292;2023-05-21T09:29:23;93635.03;;;16.62;44.01
30935;BME280;51033;42.648;23.292;2023-05-21T09:31:50;93650.34;;;16.23;43.57
30935;BME280;51033;42.648;23.292;2023-05-21T09:34:15;93641.94;;;16.44;42.92
30935;BME280;51033;42.648;23.292;2023-05-21T09:36:41;93625.00;;;16.59;42.11
30935;BME280;51033;42.648;23.292;2023-05-21T09:39:27;93627.41;;;16.87;40.19
30935;BME280;51033;42.648;23.292;2023-05-21T09:41:58;93636.09;;;16.77;39.42
30935;BME280;51033;42.648;23.292;2023-05-21T09:47:03;93629.56;;;17.20;38.27
30935;BME280;51033;42.648;23.292;2023-05-21T09:49:42;93626.66;;;16.86;38.47
30935;BME280;51033;42.648;23.292;2023-05-21T09:52:08;93626.94;;;16.81;40.78
30935;BME280;51033;42.648;23.292;2023-05-21T09:54:46;93625.38;;;17.22;38.99
30935;BME280;51033;42.648;23.292;2023-05-21T09:57:13;93610.25;;;17.37;41.03
30935;BME280;51033;42.648;23.292;2023-05-21T09:59:38;93623.56;;;17.07;38.12
30935;BME280;51033;42.648;23.292;2023-05-21T10:02:18;93618.78;;;16.97;37.95
30935;BME280;51033;42.648;23.292;2023-05-21T10:04:49;93617.88;;;16.89;38.00
30935;BME280;51033;42.648;23.292;2023-05-21T10:07:23;93618.41;;;17.17;38.25
30935;BME280;51033;42.648;23.292;2023-05-21T10:12:29;93623.41;;;16.96;38.38
30935;BME280;51033;42.648;23.292;2023-05-21T10:15:02;93616.69;;;17.09;37.73
30935;BME280;51033;42.648;23.292;2023-05-21T10:17:30;93612.03;;;17.06;37.18
30935;BME280;51033;42.648;23.292;2023-05-21T10:20:00;93606.19;;;17.46;43.70
30935;BME280;51033;42.648;23.292;2023-05-21T10:22:33;93614.16;;;17.39;37.46
30935;BME280;51033;42.648;23.292;2023-05-21T10:25:01;93600.25;;;17.34;37.92
30935;BME280;51033;42.648;23.292;2023-05-21T10:27:31;93611.25;;;17.25;38.34
30935;BME280;51033;42.648;23.292;2023-05-21T10:30:02;93600.34;;;16.95;38.20
30935;BME280;51033;42.648;23.292;2023-05-21T10:32:32;93617.44;;;17.29;37.92
30935;BME280;51033;42.648;23.292;2023-05-21T10:35:00;93602.13;;;17.10;38.48
30935;BME280;51033;42.648;23.292;2023-05-21T10:37:30;93608.78;;;17.16;38.38
30935;BME280;51033;42.648;23.292;2023-05-21T10:40:10;93610.66;;;16.70;38.23
30935;BME280;51033;42.648;23.292;2023-05-21T10:51:09;93613.16;;;17.25;39.60
30935;BME280;51033;42.648;23.292;2023-05-21T10:56:35;93605.63;;;17.60;39.69
30935;BME280;51033;42.648;23.292;2023-05-21T10:59:23;93604.28;;;17.47;39.36
30935;BME280;51033;42.648;23.292;2023-05-21T11:01:52;93608.78;;;17.39;39.86
30935;BME280;51033;42.648;23.292;2023-05-21T11:04:36;93603.31;;;17.58;39.96
30935;BME280;51033;42.648;23.292;2023-05-21T11:07:04;93610.09;;;17.26;39.34
30935;BME280;51033;42.648;23.292;2023-05-21T11:09:30;93599.50;;;17.37;39.61
30935;BME280;51033;42.648;23.292;2023-05-21T11:11:56;93601.41;;;17.59;39.90
30935;BME280;51033;42.648;23.292;2023-05-21T11:14:37;93604.13;;;17.89;40.42
30935;BME280;51033;42.648;23.292;2023-05-21T11:17:10;93596.75;;;18.09;40.01
30935;BME280;51033;42.648;23.292;2023-05-21T11:19:44;93600.56;;;17.55;39.98
30935;BME280;51033;42.648;23.292;2023-05-21T11:22:27;93594.38;;;17.28;40.14
30935;BME280;51033;42.648;23.292;2023-05-21T11:24:54;93577.91;;;17.30;40.69
30935;BME280;51033;42.648;23.292;2023-05-21T11:27:39;93587.84;;;17.26;40.59
30935;BME280;51033;42.648;23.292;2023-05-21T11:32:32;93588.75;;;17.37;40.84
30935;BME280;51033;42.648;23.292;2023-05-21T11:35:00;93574.66;;;17.43;40.84
30935;BME280;51033;42.648;23.292;2023-05-21T11:37:27;93571.09;;;17.62;39.75
30935;BME280;51033;42.648;23.292;2023-05-21T11:39:55;93593.00;;;17.38;39.53
30935;BME280;51033;42.648;23.292;2023-05-21T11:42:31;93581.13;;;17.16;39.90
30935;BME280;51033;42.648;23.292;2023-05-21T11:44:58;93586.66;;;17.49;40.22
30935;BME280;51033;42.648;23.292;2023-05-21T11:47:25;93578.41;;;17.65;39.73
30935;BME280;51033;42.648;23.292;2023-05-21T11:49:52;93566.56;;;17.96;39.51
30935;BME280;51033;42.648;23.292;2023-05-21T11:52:18;93568.91;;;17.97;39.73
30935;BME280;51033;42.648;23.292;2023-05-21T11:54:48;93561.97;;;17.70;39.17
30935;BME280;51033;42.648;23.292;2023-05-21T11:57:16;93569.50;;;17.87;38.63
30935;BME280;51033;42.648;23.292;2023-05-21T11:59:47;93559.19;;;17.63;39.71
30935;BME280;51033;42.648;23.292;2023-05-21T12:02:18;93563.53;;;17.45;40.03
30935;BME280;51033;42.648;23.292;2023-05-21T12:04:46;93568.97;;;18.04;40.05
30935;BME280;51033;42.648;23.292;2023-05-21T12:07:13;93565.78;;;17.95;39.51
30935;BME280;51033;42.648;23.292;2023-05-21T12:09:44;93566.22;;;17.97;39.87
30935;BME280;51033;42.648;23.292;2023-05-21T12:12:11;93555.47;;;17.45;39.94
30935;BME280;51033;42.648;23.292;2023-05-21T12:14:49;93568.06;;;17.41;40.74
30935;BME280;51033;42.648;23.292;2023-05-21T12:17:22;93559.38;;;17.77;40.73
30935;BME280;51033;42.648;23.292;2023-05-21T12:19:53;93553.84;;;18.23;40.64
30935;BME280;51033;42.648;23.292;2023-05-21T12:22:19;93553.47;;;17.65;40.12
30935;BME280;51033;42.648;23.292;2023-05-21T12:24:45;93557.94;;;17.57;40.96
30935;BME280;51033;42.648;23.292;2023-05-21T12:27:13;93557.38;;;17.18;41.88
30935;BME280;51033;42.648;23.292;2023-05-21T12:29:42;93560.16;;;17.02;42.42
30935;BME280;51033;42.648;23.292;2023-05-21T12:32:10;93562.63;;;16.46;43.44
30935;BME280;51033;42.648;23.292;2023-05-21T12:34:51;93565.53;;;16.57;43.76
30935;BME280;51033;42.648;23.292;2023-05-21T12:37:22;93561.31;;;16.37;44.34
30935;BME280;51033;42.648;23.292;2023-05-21T12:39:53;93562.38;;;16.32;45.24
30935;BME280;51033;42.648;23.292;2023-05-21T12:42:26;93545.19;;;16.17;45.34
30935;BME280;51033;42.648;23.292;2023-05-21T12:44:52;93554.19;;;16.67;44.99
30935;BME280;51033;42.648;23.292;2023-05-21T12:47:22;93547.44;;;16.99;44.42
30935;BME280;51033;42.648;23.292;2023-05-21T12:49:49;93549.47;;;17.06;44.49
30935;BME280;51033;42.648;23.292;2023-05-21T12:52:18;93549.31;;;17.44;44.08
30935;BME280;51033;42.648;23.292;2023-05-21T12:54:48;93543.44;;;17.65;43.35
30935;BME280;51033;42.648;23.292;2023-05-21T12:57:19;93545.75;;;17.63;43.67
30935;BME280;51033;42.648;23.292;2023-05-21T13:02:24;93547.75;;;18.29;43.28
30935;BME280;51033;42.648;23.292;2023-05-21T13:04:57;93546.41;;;18.46;42.98
30935;BME280;51033;42.648;23.292;2023-05-21T13:07:24;93548.94;;;18.69;42.66
30935;BME280;51033;42.648;23.292;2023-05-21T13:09:50;93528.91;;;18.66;42.90
30935;BME280;51033;42.648;23.292;2023-05-21T13:12:18;93549.19;;;18.94;42.96
30935;BME280;51033;42.648;23.292;2023-05-21T13:14:44;93547.84;;;19.14;42.42
30935;BME280;51033;42.648;23.292;2023-05-21T13:17:10;93540.53;;;19.18;43.43
30935;BME280;51033;42.648;23.292;2023-05-21T13:19:35;93547.22;;;19.35;43.70